sensor_id;sensor_type;location;lat;lon;timestamp;P1;durP1;ratioP1;P2;durP2;ratioP2
21183;SDS011;18176;49.502;11.754;2023-01-20T00:00:43;16.57;;;9.80;;
21183;SDS011;18176;49.502;11.754;2023-01-20T00:04:46;17.67;;;9.80;;
21183;SDS011;18176;49.502;11.754;2023-01-20T00:08:48;17.87;;;9.57;;
21183;SDS011;18176;49.502;11.754;2023-01-20T00:12:49;12.47;;;8.13;;
21183;SDS011;18176;49.502;11.754;2023-01-20T00:16:49;15.27;;;9.60;;
21183;SDS011;18176;49.502;11.754;2023-01-20T00:20:52;18.40;;;9.50;;
21183;SDS011;18176;49.502;11.754;2023-01-20T00:24:52;17.73;;;10.37;;
21183;SDS011;18176;49.502;11.754;2023-01-20T00:28:53;16.07;;;9.70;;
21183;SDS011;18176;49.502;11.754;2023-01-20T00:32:54;14.97;;;9.30;;
21183;SDS011;18176;49.502;11.754;2023-01-20T00:36:57;14.00;;;8.87;;
21183;SDS011;18176;49.502;11.754;2023-01-20T00:40:57;15.27;;;9.47;;
21183;SDS011;18176;49.502;11.754;2023-01-20T00:44:57;17.40;;;9.63;;
21183;SDS011;18176;49.502;11.754;2023-01-20T00:48:58;16.17;;;9.40;;
21183;SDS011;18176;49.502;11.754;2023-01-20T00:53:00;15.13;;;8.50;;
21183;SDS011;18176;49.502;11.754;2023-01-20T00:57:01;15.10;;;8.43;;
21183;SDS011;18176;49.502;11.754;2023-01-20T01:01:01;16.10;;;9.03;;
21183;SDS011;18176;49.502;11.754;2023-01-20T01:05:01;17.50;;;9.07;;
21183;SDS011;18176;49.502;11.754;2023-01-20T01:09:04;15.23;;;9.07;;
21183;SDS011;18176;49.502;11.754;2023-01-20T01:13:05;16.17;;;8.57;;
21183;SDS011;18176;49.502;11.754;2023-01-20T01:17:06;15.63;;;8.40;;
21183;SDS011;18176;49.502;11.754;2023-01-20T01:21:07;13.40;;;8.50;;
21183;SDS011;18176;49.502;11.754;2023-01-20T01:25:12;12.03;;;8.00;;
21183;SDS011;18176;49.502;11.754;2023-01-20T01:29:12;15.10;;;9.10;;
21183;SDS011;18176;49.502;11.754;2023-01-20T01:33:12;14.70;;;9.13;;
21183;SDS011;18176;49.502;11.754;2023-01-20T01:37:13;15.80;;;9.33;;
21183;SDS011;18176;49.502;11.754;2023-01-20T01:41:16;16.07;;;10.00;;
21183;SDS011;18176;49.502;11.754;2023-01-20T01:45:17;13.07;;;8.77;;
21183;SDS011;18176;49.502;11.754;2023-01-20T01:49:24;13.00;;;8.60;;
21183;SDS011;18176;49.502;11.754;2023-01-20T01:53:29;13.37;;;8.53;;
21183;SDS011;18176;49.502;11.754;2023-01-20T01:57:43;14.23;;;8.67;;
21183;SDS011;18176;49.502;11.754;2023-01-20T02:01:46;17.73;;;10.97;;
21183;SDS011;18176;49.502;11.754;2023-01-20T02:05:50;15.27;;;9.43;;
21183;SDS011;18176;49.502;11.754;2023-01-20T02:09:53;15.03;;;9.20;;
21183;SDS011;18176;49.502;11.754;2023-01-20T02:13:55;18.20;;;10.50;;
21183;SDS011;18176;49.502;11.754;2023-01-20T02:18:01;17.30;;;10.23;;
21183;SDS011;18176;49.502;11.754;2023-01-20T02:22:22;19.87;;;11.53;;
21183;SDS011;18176;49.502;11.754;2023-01-20T02:26:37;17.13;;;11.07;;
21183;SDS011;18176;49.502;11.754;2023-01-20T02:31:13;20.50;;;11.20;;
21183;SDS011;18176;49.502;11.754;2023-01-20T02:35:36;16.90;;;10.60;;
21183;SDS011;18176;49.502;11.754;2023-01-20T02:39:43;20.13;;;11.63;;
21183;SDS011;18176;49.502;11.754;2023-01-20T02:44:13;18.23;;;11.10;;
21183;SDS011;18176;49.502;11.754;2023-01-20T02:48:27;17.07;;;10.23;;
21183;SDS011;18176;49.502;11.754;2023-01-20T02:52:38;16.07;;;11.23;;
21183;SDS011;18176;49.502;11.754;2023-01-20T02:56:42;16.77;;;11.00;;
21183;SDS011;18176;49.502;11.754;2023-01-20T03:00:47;19.00;;;11.57;;
21183;SDS011;18176;49.502;11.754;2023-01-20T03:04:54;16.73;;;11.13;;
21183;SDS011;18176;49.502;11.754;2023-01-20T03:09:06;17.93;;;11.30;;
21183;SDS011;18176;49.502;11.754;2023-01-20T03:13:12;19.67;;;11.83;;
21183;SDS011;18176;49.502;11.754;2023-01-20T03:17:20;16.33;;;11.03;;
21183;SDS011;18176;49.502;11.754;2023-01-20T03:21:21;20.63;;;12.63;;
21183;SDS011;18176;49.502;11.754;2023-01-20T03:25:24;20.73;;;11.53;;
21183;SDS011;18176;49.502;11.754;2023-01-20T03:29:25;24.43;;;12.93;;
21183;SDS011;18176;49.502;11.754;2023-01-20T03:33:26;24.37;;;13.33;;
21183;SDS011;18176;49.502;11.754;2023-01-20T03:37:26;20.80;;;12.83;;
21183;SDS011;18176;49.502;11.754;2023-01-20T03:41:32;25.27;;;13.93;;
21183;SDS011;18176;49.502;11.754;2023-01-20T03:45:49;24.33;;;13.50;;
21183;SDS011;18176;49.502;11.754;2023-01-20T03:49:59;23.97;;;13.73;;
21183;SDS011;18176;49.502;11.754;2023-01-20T03:54:08;23.40;;;13.63;;
21183;SDS011;18176;49.502;11.754;2023-01-20T03:58:19;22.23;;;13.37;;
21183;SDS011;18176;49.502;11.754;2023-01-20T04:02:25;22.43;;;14.00;;
21183;SDS011;18176;49.502;11.754;2023-01-20T04:06:27;24.73;;;13.87;;
21183;SDS011;18176;49.502;11.754;2023-01-20T04:10:30;25.40;;;14.83;;
21183;SDS011;18176;49.502;11.754;2023-01-20T04:14:37;24.97;;;14.53;;
21183;SDS011;18176;49.502;11.754;2023-01-20T04:18:39;24.87;;;14.07;;
21183;SDS011;18176;49.502;11.754;2023-01-20T04:22:46;27.10;;;16.20;;
21183;SDS011;18176;49.502;11.754;2023-01-20T04:26:51;29.20;;;16.73;;
21183;SDS011;18176;49.502;11.754;2023-01-20T04:30:54;26.53;;;15.87;;
21183;SDS011;18176;49.502;11.754;2023-01-20T04:34:54;25.07;;;15.03;;
21183;SDS011;18176;49.502;11.754;2023-01-20T04:38:54;28.20;;;15.33;;
21183;SDS011;18176;49.502;11.754;2023-01-20T04:42:55;29.37;;;16.00;;
21183;SDS011;18176;49.502;11.754;2023-01-20T04:46:58;30.00;;;17.07;;
21183;SDS011;18176;49.502;11.754;2023-01-20T04:50:58;25.97;;;16.37;;
21183;SDS011;18176;49.502;11.754;2023-01-20T04:55:03;24.83;;;15.63;;
21183;SDS011;18176;49.502;11.754;2023-01-20T04:59:03;26.60;;;14.90;;
21183;SDS011;18176;49.502;11.754;2023-01-20T05:03:06;27.23;;;15.87;;
21183;SDS011;18176;49.502;11.754;2023-01-20T05:07:06;26.07;;;14.27;;
21183;SDS011;18176;49.502;11.754;2023-01-20T05:11:07;22.57;;;13.30;;
21183;SDS011;18176;49.502;11.754;2023-01-20T05:15:07;23.97;;;14.73;;
21183;SDS011;18176;49.502;11.754;2023-01-20T05:19:12;28.27;;;15.63;;
21183;SDS011;18176;49.502;11.754;2023-01-20T05:23:13;31.33;;;15.63;;
21183;SDS011;18176;49.502;11.754;2023-01-20T05:27:14;26.27;;;15.10;;
21183;SDS011;18176;49.502;11.754;2023-01-20T05:31:14;28.40;;;15.60;;
21183;SDS011;18176;49.502;11.754;2023-01-20T05:35:17;27.30;;;14.80;;
21183;SDS011;18176;49.502;11.754;2023-01-20T05:39:17;25.33;;;15.27;;
21183;SDS011;18176;49.502;11.754;2023-01-20T05:43:18;27.13;;;15.33;;
21183;SDS011;18176;49.502;11.754;2023-01-20T05:47:18;24.07;;;14.70;;
21183;SDS011;18176;49.502;11.754;2023-01-20T05:51:21;29.77;;;15.50;;
21183;SDS011;18176;49.502;11.754;2023-01-20T05:55:21;29.57;;;16.70;;
21183;SDS011;18176;49.502;11.754;2023-01-20T05:59:22;35.03;;;20.10;;
21183;SDS011;18176;49.502;11.754;2023-01-20T06:03:22;39.53;;;21.80;;
21183;SDS011;18176;49.502;11.754;2023-01-20T06:07:25;41.40;;;20.60;;
21183;SDS011;18176;49.502;11.754;2023-01-20T06:11:26;35.17;;;19.67;;
21183;SDS011;18176;49.502;11.754;2023-01-20T06:15:26;30.60;;;16.50;;
21183;SDS011;18176;49.502;11.754;2023-01-20T06:19:26;28.10;;;16.23;;
21183;SDS011;18176;49.502;11.754;2023-01-20T06:23:29;27.20;;;15.33;;
21183;SDS011;18176;49.502;11.754;2023-01-20T06:27:29;26.47;;;16.10;;
21183;SDS011;18176;49.502;11.754;2023-01-20T06:31:29;27.17;;;16.27;;
21183;SDS011;18176;49.502;11.754;2023-01-20T06:35:30;27.60;;;15.83;;
21183;SDS011;18176;49.502;11.754;2023-01-20T06:39:32;28.60;;;17.17;;
21183;SDS011;18176;49.502;11.754;2023-01-20T06:43:33;31.10;;;17.20;;
21183;SDS011;18176;49.502;11.754;2023-01-20T06:47:35;28.30;;;15.87;;
21183;SDS011;18176;49.502;11.754;2023-01-20T06:51:35;29.97;;;17.50;;
21183;SDS011;18176;49.502;11.754;2023-01-20T06:55:39;29.57;;;17.50;;
21183;SDS011;18176;49.502;11.754;2023-01-20T06:59:40;33.33;;;17.77;;
21183;SDS011;18176;49.502;11.754;2023-01-20T07:03:40;32.30;;;18.57;;
21183;SDS011;18176;49.502;11.754;2023-01-20T07:07:42;33.13;;;18.83;;
21183;SDS011;18176;49.502;11.754;2023-01-20T07:11:45;30.30;;;17.73;;
21183;SDS011;18176;49.502;11.754;2023-01-20T07:15:45;33.33;;;18.83;;
21183;SDS011;18176;49.502;11.754;2023-01-20T07:19:46;29.30;;;18.87;;
21183;SDS011;18176;49.502;11.754;2023-01-20T07:23:47;31.90;;;17.63;;
21183;SDS011;18176;49.502;11.754;2023-01-20T07:27:50;32.67;;;18.87;;
21183;SDS011;18176;49.502;11.754;2023-01-20T07:31:50;32.63;;;18.60;;
21183;SDS011;18176;49.502;11.754;2023-01-20T07:35:51;31.40;;;18.03;;
21183;SDS011;18176;49.502;11.754;2023-01-20T07:39:53;26.90;;;16.97;;
21183;SDS011;18176;49.502;11.754;2023-01-20T07:43:59;29.40;;;17.33;;
21183;SDS011;18176;49.502;11.754;2023-01-20T07:48:00;36.73;;;19.80;;
21183;SDS011;18176;49.502;11.754;2023-01-20T07:52:02;30.80;;;18.73;;
21183;SDS011;18176;49.502;11.754;2023-01-20T07:56:04;33.50;;;18.53;;
21183;SDS011;18176;49.502;11.754;2023-01-20T08:00:11;31.53;;;18.70;;
21183;SDS011;18176;49.502;11.754;2023-01-20T08:04:13;31.97;;;18.10;;
21183;SDS011;18176;49.502;11.754;2023-01-20T08:08:14;30.23;;;17.43;;
21183;SDS011;18176;49.502;11.754;2023-01-20T08:12:14;30.43;;;17.60;;
21183;SDS011;18176;49.502;11.754;2023-01-20T08:16:18;27.83;;;17.60;;
21183;SDS011;18176;49.502;11.754;2023-01-20T08:20:19;33.37;;;19.30;;
21183;SDS011;18176;49.502;11.754;2023-01-20T08:24:20;30.27;;;18.83;;
21183;SDS011;18176;49.502;11.754;2023-01-20T08:28:38;33.33;;;18.57;;
21183;SDS011;18176;49.502;11.754;2023-01-20T08:33:35;29.90;;;17.50;;
21183;SDS011;18176;49.502;11.754;2023-01-20T08:38:04;32.43;;;17.40;;
21183;SDS011;18176;49.502;11.754;2023-01-20T08:42:07;29.63;;;17.50;;
21183;SDS011;18176;49.502;11.754;2023-01-20T08:46:30;28.70;;;17.23;;
21183;SDS011;18176;49.502;11.754;2023-01-20T08:50:45;29.13;;;16.63;;
21183;SDS011;18176;49.502;11.754;2023-01-20T08:54:50;26.83;;;15.93;;
21183;SDS011;18176;49.502;11.754;2023-01-20T08:58:51;26.93;;;15.47;;
21183;SDS011;18176;49.502;11.754;2023-01-20T09:03:04;27.23;;;16.07;;
21183;SDS011;18176;49.502;11.754;2023-01-20T09:07:06;28.23;;;16.27;;
21183;SDS011;18176;49.502;11.754;2023-01-20T09:11:11;24.67;;;14.30;;
21183;SDS011;18176;49.502;11.754;2023-01-20T09:15:13;21.83;;;13.47;;
21183;SDS011;18176;49.502;11.754;2023-01-20T09:19:16;21.23;;;13.07;;
21183;SDS011;18176;49.502;11.754;2023-01-20T09:23:19;22.70;;;12.53;;
21183;SDS011;18176;49.502;11.754;2023-01-20T09:27:20;25.13;;;13.67;;
21183;SDS011;18176;49.502;11.754;2023-01-20T09:31:20;19.03;;;11.60;;
21183;SDS011;18176;49.502;11.754;2023-01-20T09:35:22;17.13;;;11.03;;
21183;SDS011;18176;49.502;11.754;2023-01-20T09:39:25;19.63;;;11.57;;
21183;SDS011;18176;49.502;11.754;2023-01-20T09:43:39;16.73;;;10.03;;
21183;SDS011;18176;49.502;11.754;2023-01-20T09:47:56;19.00;;;10.73;;
21183;SDS011;18176;49.502;11.754;2023-01-20T09:52:15;18.83;;;9.73;;
21183;SDS011;18176;49.502;11.754;2023-01-20T09:56:45;13.30;;;8.57;;
21183;SDS011;18176;49.502;11.754;2023-01-20T10:00:52;12.53;;;7.50;;
21183;SDS011;18176;49.502;11.754;2023-01-20T10:05:06;15.17;;;7.63;;
21183;SDS011;18176;49.502;11.754;2023-01-20T10:09:16;17.37;;;8.70;;
21183;SDS011;18176;49.502;11.754;2023-01-20T10:13:30;18.07;;;9.33;;
21183;SDS011;18176;49.502;11.754;2023-01-20T10:17:37;12.97;;;7.57;;
21183;SDS011;18176;49.502;11.754;2023-01-20T10:21:49;14.83;;;7.30;;
21183;SDS011;18176;49.502;11.754;2023-01-20T10:25:59;12.27;;;6.37;;
21183;SDS011;18176;49.502;11.754;2023-01-20T10:30:19;12.23;;;6.27;;
21183;SDS011;18176;49.502;11.754;2023-01-20T10:34:28;21.67;;;7.70;;
21183;SDS011;18176;49.502;11.754;2023-01-20T10:38:39;15.30;;;6.50;;
21183;SDS011;18176;49.502;11.754;2023-01-20T10:42:55;9.13;;;4.67;;
21183;SDS011;18176;49.502;11.754;2023-01-20T10:47:33;10.03;;;4.27;;
21183;SDS011;18176;49.502;11.754;2023-01-20T10:52:08;7.80;;;3.30;;
21183;SDS011;18176;49.502;11.754;2023-01-20T10:57:09;5.93;;;2.90;;
21183;SDS011;18176;49.502;11.754;2023-01-20T11:01:15;7.43;;;3.10;;
21183;SDS011;18176;49.502;11.754;2023-01-20T11:05:21;7.50;;;3.23;;
21183;SDS011;18176;49.502;11.754;2023-01-20T11:09:33;6.63;;;2.53;;
21183;SDS011;18176;49.502;11.754;2023-01-20T11:13:35;7.53;;;3.60;;
21183;SDS011;18176;49.502;11.754;2023-01-20T11:17:35;6.90;;;3.40;;
21183;SDS011;18176;49.502;11.754;2023-01-20T11:21:40;6.70;;;3.20;;
21183;SDS011;18176;49.502;11.754;2023-01-20T11:25:40;5.10;;;2.53;;
21183;SDS011;18176;49.502;11.754;2023-01-20T11:29:41;6.63;;;2.13;;
21183;SDS011;18176;49.502;11.754;2023-01-20T11:33:57;5.63;;;2.40;;
21183;SDS011;18176;49.502;11.754;2023-01-20T11:38:10;4.57;;;2.00;;
21183;SDS011;18176;49.502;11.754;2023-01-20T11:42:23;3.13;;;1.50;;
21183;SDS011;18176;49.502;11.754;2023-01-20T11:46:27;3.80;;;1.97;;
21183;SDS011;18176;49.502;11.754;2023-01-20T11:50:31;4.20;;;1.50;;
21183;SDS011;18176;49.502;11.754;2023-01-20T11:54:37;3.23;;;1.60;;
21183;SDS011;18176;49.502;11.754;2023-01-20T11:58:47;3.30;;;2.00;;
21183;SDS011;18176;49.502;11.754;2023-01-20T12:02:55;5.37;;;1.90;;
21183;SDS011;18176;49.502;11.754;2023-01-20T12:06:58;6.13;;;2.40;;
21183;SDS011;18176;49.502;11.754;2023-01-20T12:11:06;4.23;;;2.00;;
21183;SDS011;18176;49.502;11.754;2023-01-20T12:15:12;3.30;;;1.80;;
21183;SDS011;18176;49.502;11.754;2023-01-20T12:19:17;4.23;;;1.90;;
21183;SDS011;18176;49.502;11.754;2023-01-20T12:23:31;4.87;;;1.80;;
21183;SDS011;18176;49.502;11.754;2023-01-20T12:27:47;6.40;;;1.93;;
21183;SDS011;18176;49.502;11.754;2023-01-20T12:31:51;5.03;;;2.10;;
21183;SDS011;18176;49.502;11.754;2023-01-20T12:40:39;3.27;;;1.53;;
21183;SDS011;18176;49.502;11.754;2023-01-20T12:44:49;3.83;;;1.77;;
21183;SDS011;18176;49.502;11.754;2023-01-20T12:53:41;5.70;;;2.00;;
21183;SDS011;18176;49.502;11.754;2023-01-20T12:58:11;5.57;;;2.57;;
21183;SDS011;18176;49.502;11.754;2023-01-20T13:07:43;4.60;;;2.40;;
21183;SDS011;18176;49.502;11.754;2023-01-20T13:12:05;10.43;;;3.23;;
21183;SDS011;18176;49.502;11.754;2023-01-20T13:16:31;5.57;;;2.80;;
21183;SDS011;18176;49.502;11.754;2023-01-20T13:20:39;5.47;;;3.00;;
21183;SDS011;18176;49.502;11.754;2023-01-20T13:24:46;5.60;;;2.70;;
21183;SDS011;18176;49.502;11.754;2023-01-20T13:28:50;5.53;;;2.80;;
21183;SDS011;18176;49.502;11.754;2023-01-20T13:33:01;9.50;;;3.53;;
21183;SDS011;18176;49.502;11.754;2023-01-20T13:37:21;8.20;;;3.60;;
21183;SDS011;18176;49.502;11.754;2023-01-20T13:45:49;6.63;;;3.50;;
21183;SDS011;18176;49.502;11.754;2023-01-20T13:50:42;5.30;;;3.23;;
21183;SDS011;18176;49.502;11.754;2023-01-20T13:54:46;7.30;;;3.80;;
21183;SDS011;18176;49.502;11.754;2023-01-20T13:58:49;7.13;;;4.37;;
21183;SDS011;18176;49.502;11.754;2023-01-20T14:02:50;6.33;;;4.17;;
21183;SDS011;18176;49.502;11.754;2023-01-20T14:06:52;7.33;;;4.30;;
21183;SDS011;18176;49.502;11.754;2023-01-20T14:11:02;7.23;;;4.60;;
21183;SDS011;18176;49.502;11.754;2023-01-20T14:15:26;8.13;;;5.30;;
21183;SDS011;18176;49.502;11.754;2023-01-20T14:19:35;11.13;;;6.43;;
21183;SDS011;18176;49.502;11.754;2023-01-20T14:23:37;8.20;;;5.40;;
21183;SDS011;18176;49.502;11.754;2023-01-20T14:27:37;9.90;;;5.70;;
21183;SDS011;18176;49.502;11.754;2023-01-20T14:31:45;12.33;;;8.20;;
21183;SDS011;18176;49.502;11.754;2023-01-20T14:35:45;13.23;;;8.30;;
21183;SDS011;18176;49.502;11.754;2023-01-20T14:39:46;14.00;;;7.63;;
21183;SDS011;18176;49.502;11.754;2023-01-20T14:43:47;14.93;;;8.60;;
21183;SDS011;18176;49.502;11.754;2023-01-20T14:47:50;10.80;;;7.33;;
21183;SDS011;18176;49.502;11.754;2023-01-20T14:51:51;9.90;;;6.30;;
21183;SDS011;18176;49.502;11.754;2023-01-20T14:55:56;13.43;;;7.43;;
21183;SDS011;18176;49.502;11.754;2023-01-20T15:00:01;10.43;;;7.10;;
21183;SDS011;18176;49.502;11.754;2023-01-20T15:04:21;10.63;;;7.13;;
21183;SDS011;18176;49.502;11.754;2023-01-20T15:08:22;12.07;;;7.87;;
21183;SDS011;18176;49.502;11.754;2023-01-20T15:12:35;13.57;;;7.77;;
21183;SDS011;18176;49.502;11.754;2023-01-20T15:16:43;11.50;;;7.60;;
21183;SDS011;18176;49.502;11.754;2023-01-20T15:20:53;17.00;;;9.60;;
21183;SDS011;18176;49.502;11.754;2023-01-20T15:25:12;15.70;;;8.37;;
21183;SDS011;18176;49.502;11.754;2023-01-20T15:29:18;15.80;;;9.00;;
21183;SDS011;18176;49.502;11.754;2023-01-20T15:33:20;22.40;;;11.80;;
21183;SDS011;18176;49.502;11.754;2023-01-20T15:37:24;18.03;;;8.87;;
21183;SDS011;18176;49.502;11.754;2023-01-20T15:41:24;15.63;;;9.63;;
21183;SDS011;18176;49.502;11.754;2023-01-20T15:45:24;17.53;;;10.47;;
21183;SDS011;18176;49.502;11.754;2023-01-20T15:49:26;17.07;;;9.17;;
21183;SDS011;18176;49.502;11.754;2023-01-20T15:53:29;17.87;;;9.23;;
21183;SDS011;18176;49.502;11.754;2023-01-20T15:57:29;14.93;;;8.67;;
21183;SDS011;18176;49.502;11.754;2023-01-20T16:01:29;21.63;;;11.37;;
21183;SDS011;18176;49.502;11.754;2023-01-20T16:05:30;23.60;;;13.47;;
21183;SDS011;18176;49.502;11.754;2023-01-20T16:09:32;21.90;;;12.50;;
21183;SDS011;18176;49.502;11.754;2023-01-20T16:13:34;19.97;;;10.70;;
21183;SDS011;18176;49.502;11.754;2023-01-20T16:17:34;25.63;;;15.10;;
21183;SDS011;18176;49.502;11.754;2023-01-20T16:21:34;27.67;;;15.43;;
21183;SDS011;18176;49.502;11.754;2023-01-20T16:25:37;31.70;;;17.23;;
21183;SDS011;18176;49.502;11.754;2023-01-20T16:29:38;25.27;;;15.87;;
21183;SDS011;18176;49.502;11.754;2023-01-20T16:33:39;28.43;;;14.97;;
21183;SDS011;18176;49.502;11.754;2023-01-20T16:37:40;41.67;;;21.97;;
21183;SDS011;18176;49.502;11.754;2023-01-20T16:41:43;55.70;;;26.13;;
21183;SDS011;18176;49.502;11.754;2023-01-20T16:45:47;37.07;;;19.90;;
21183;SDS011;18176;49.502;11.754;2023-01-20T16:49:50;30.17;;;16.90;;
21183;SDS011;18176;49.502;11.754;2023-01-20T16:53:51;30.50;;;17.40;;
21183;SDS011;18176;49.502;11.754;2023-01-20T16:57:56;29.27;;;16.50;;
21183;SDS011;18176;49.502;11.754;2023-01-20T17:01:56;28.93;;;15.50;;
21183;SDS011;18176;49.502;11.754;2023-01-20T17:05:57;29.57;;;16.13;;
21183;SDS011;18176;49.502;11.754;2023-01-20T17:09:57;37.77;;;19.93;;
21183;SDS011;18176;49.502;11.754;2023-01-20T17:14:00;39.90;;;20.40;;
21183;SDS011;18176;49.502;11.754;2023-01-20T17:18:03;33.50;;;18.73;;
21183;SDS011;18176;49.502;11.754;2023-01-20T17:22:03;29.33;;;16.43;;
21183;SDS011;18176;49.502;11.754;2023-01-20T17:26:03;27.40;;;15.63;;
21183;SDS011;18176;49.502;11.754;2023-01-20T17:30:09;25.77;;;15.10;;
21183;SDS011;18176;49.502;11.754;2023-01-20T17:34:10;34.37;;;17.10;;
21183;SDS011;18176;49.502;11.754;2023-01-20T17:38:10;31.40;;;16.33;;
21183;SDS011;18176;49.502;11.754;2023-01-20T17:42:11;34.87;;;18.17;;
21183;SDS011;18176;49.502;11.754;2023-01-20T17:46:16;35.70;;;19.10;;
21183;SDS011;18176;49.502;11.754;2023-01-20T17:50:18;32.97;;;17.17;;
21183;SDS011;18176;49.502;11.754;2023-01-20T17:54:18;35.43;;;18.27;;
21183;SDS011;18176;49.502;11.754;2023-01-20T17:58:18;53.20;;;23.67;;
21183;SDS011;18176;49.502;11.754;2023-01-20T18:02:21;45.10;;;21.10;;
21183;SDS011;18176;49.502;11.754;2023-01-20T18:06:22;31.83;;;16.30;;
21183;SDS011;18176;49.502;11.754;2023-01-20T18:10:24;30.63;;;15.90;;
21183;SDS011;18176;49.502;11.754;2023-01-20T18:14:25;30.50;;;15.70;;
21183;SDS011;18176;49.502;11.754;2023-01-20T18:18:28;24.10;;;13.07;;
21183;SDS011;18176;49.502;11.754;2023-01-20T18:22:29;35.37;;;18.07;;
21183;SDS011;18176;49.502;11.754;2023-01-20T18:26:30;27.77;;;14.63;;
21183;SDS011;18176;49.502;11.754;2023-01-20T18:30:33;30.23;;;14.90;;
21183;SDS011;18176;49.502;11.754;2023-01-20T18:34:36;21.20;;;12.07;;
21183;SDS011;18176;49.502;11.754;2023-01-20T18:38:36;20.50;;;10.00;;
21183;SDS011;18176;49.502;11.754;2023-01-20T18:42:38;17.47;;;10.13;;
21183;SDS011;18176;49.502;11.754;2023-01-20T18:46:40;17.97;;;10.57;;
21183;SDS011;18176;49.502;11.754;2023-01-20T18:50:43;22.63;;;11.50;;
21183;SDS011;18176;49.502;11.754;2023-01-20T18:54:44;22.50;;;12.47;;
21183;SDS011;18176;49.502;11.754;2023-01-20T18:58:44;20.87;;;10.30;;
21183;SDS011;18176;49.502;11.754;2023-01-20T19:02:48;24.23;;;12.63;;
21183;SDS011;18176;49.502;11.754;2023-01-20T19:06:51;19.10;;;10.47;;
21183;SDS011;18176;49.502;11.754;2023-01-20T19:10:51;22.00;;;10.97;;
21183;SDS011;18176;49.502;11.754;2023-01-20T19:14:51;23.63;;;12.70;;
21183;SDS011;18176;49.502;11.754;2023-01-20T19:18:52;19.67;;;10.40;;
21183;SDS011;18176;49.502;11.754;2023-01-20T19:22:57;23.87;;;12.43;;
21183;SDS011;18176;49.502;11.754;2023-01-20T19:26:58;20.13;;;12.30;;
21183;SDS011;18176;49.502;11.754;2023-01-20T19:31:02;22.47;;;13.93;;
21183;SDS011;18176;49.502;11.754;2023-01-20T19:35:05;26.03;;;15.27;;
21183;SDS011;18176;49.502;11.754;2023-01-20T19:39:09;35.20;;;18.83;;
21183;SDS011;18176;49.502;11.754;2023-01-20T19:43:09;38.63;;;19.77;;
21183;SDS011;18176;49.502;11.754;2023-01-20T19:47:10;32.73;;;18.27;;
21183;SDS011;18176;49.502;11.754;2023-01-20T19:51:10;28.77;;;15.93;;
21183;SDS011;18176;49.502;11.754;2023-01-20T19:55:17;38.93;;;18.87;;
21183;SDS011;18176;49.502;11.754;2023-01-20T19:59:17;31.40;;;16.47;;
21183;SDS011;18176;49.502;11.754;2023-01-20T20:03:18;33.37;;;17.87;;
21183;SDS011;18176;49.502;11.754;2023-01-20T20:07:18;38.33;;;19.00;;
21183;SDS011;18176;49.502;11.754;2023-01-20T20:11:21;39.90;;;19.57;;
21183;SDS011;18176;49.502;11.754;2023-01-20T20:15:22;35.97;;;19.13;;
21183;SDS011;18176;49.502;11.754;2023-01-20T20:19:22;39.37;;;20.50;;
21183;SDS011;18176;49.502;11.754;2023-01-20T20:23:24;37.10;;;20.07;;
21183;SDS011;18176;49.502;11.754;2023-01-20T20:27:27;40.40;;;20.20;;
21183;SDS011;18176;49.502;11.754;2023-01-20T20:31:28;40.80;;;20.37;;
21183;SDS011;18176;49.502;11.754;2023-01-20T20:35:33;47.67;;;23.00;;
21183;SDS011;18176;49.502;11.754;2023-01-20T20:39:34;43.33;;;21.43;;
21183;SDS011;18176;49.502;11.754;2023-01-20T20:43:37;43.47;;;21.80;;
21183;SDS011;18176;49.502;11.754;2023-01-20T20:47:37;40.83;;;20.27;;
21183;SDS011;18176;49.502;11.754;2023-01-20T20:51:38;48.07;;;23.17;;
21183;SDS011;18176;49.502;11.754;2023-01-20T20:55:38;51.83;;;23.60;;
21183;SDS011;18176;49.502;11.754;2023-01-20T20:59:41;45.33;;;22.27;;
21183;SDS011;18176;49.502;11.754;2023-01-20T21:03:54;42.97;;;21.63;;
21183;SDS011;18176;49.502;11.754;2023-01-20T21:07:56;38.40;;;20.27;;
21183;SDS011;18176;49.502;11.754;2023-01-20T21:11:56;43.27;;;22.03;;
21183;SDS011;18176;49.502;11.754;2023-01-20T21:15:59;39.70;;;19.63;;
21183;SDS011;18176;49.502;11.754;2023-01-20T21:20:06;33.30;;;18.00;;
21183;SDS011;18176;49.502;11.754;2023-01-20T21:24:08;35.13;;;18.33;;
21183;SDS011;18176;49.502;11.754;2023-01-20T21:28:10;37.73;;;18.63;;
21183;SDS011;18176;49.502;11.754;2023-01-20T21:32:14;42.73;;;18.70;;
21183;SDS011;18176;49.502;11.754;2023-01-20T21:36:15;41.37;;;18.37;;
21183;SDS011;18176;49.502;11.754;2023-01-20T21:40:15;40.43;;;17.73;;
21183;SDS011;18176;49.502;11.754;2023-01-20T21:44:16;36.67;;;17.90;;
21183;SDS011;18176;49.502;11.754;2023-01-20T21:48:32;43.17;;;19.50;;
21183;SDS011;18176;49.502;11.754;2023-01-20T21:52:44;43.50;;;20.57;;
21183;SDS011;18176;49.502;11.754;2023-01-20T21:56:45;44.73;;;20.60;;
21183;SDS011;18176;49.502;11.754;2023-01-20T22:00:46;40.37;;;19.80;;
21183;SDS011;18176;49.502;11.754;2023-01-20T22:04:49;38.10;;;18.60;;
21183;SDS011;18176;49.502;11.754;2023-01-20T22:08:49;35.17;;;15.77;;
21183;SDS011;18176;49.502;11.754;2023-01-20T22:12:50;34.00;;;15.90;;
21183;SDS011;18176;49.502;11.754;2023-01-20T22:16:50;28.57;;;14.57;;
21183;SDS011;18176;49.502;11.754;2023-01-20T22:20:53;34.10;;;16.90;;
21183;SDS011;18176;49.502;11.754;2023-01-20T22:24:53;32.83;;;15.63;;
21183;SDS011;18176;49.502;11.754;2023-01-20T22:28:53;30.87;;;15.83;;
21183;SDS011;18176;49.502;11.754;2023-01-20T22:32:53;34.47;;;16.37;;
21183;SDS011;18176;49.502;11.754;2023-01-20T22:36:56;37.33;;;18.50;;
21183;SDS011;18176;49.502;11.754;2023-01-20T22:41:00;35.00;;;16.80;;
21183;SDS011;18176;49.502;11.754;2023-01-20T22:45:02;28.73;;;14.30;;
21183;SDS011;18176;49.502;11.754;2023-01-20T22:49:04;32.80;;;14.00;;
21183;SDS011;18176;49.502;11.754;2023-01-20T22:53:07;30.00;;;14.97;;
21183;SDS011;18176;49.502;11.754;2023-01-20T22:57:07;31.43;;;15.37;;
21183;SDS011;18176;49.502;11.754;2023-01-20T23:01:10;30.77;;;15.17;;
21183;SDS011;18176;49.502;11.754;2023-01-20T23:05:12;29.27;;;14.50;;
21183;SDS011;18176;49.502;11.754;2023-01-20T23:09:15;33.87;;;14.60;;
21183;SDS011;18176;49.502;11.754;2023-01-20T23:13:15;30.83;;;15.07;;
21183;SDS011;18176;49.502;11.754;2023-01-20T23:17:16;32.30;;;15.17;;
21183;SDS011;18176;49.502;11.754;2023-01-20T23:21:16;30.40;;;15.60;;
21183;SDS011;18176;49.502;11.754;2023-01-20T23:25:20;31.30;;;15.43;;
21183;SDS011;18176;49.502;11.754;2023-01-20T23:29:20;30.13;;;14.60;;
21183;SDS011;18176;49.502;11.754;2023-01-20T23:33:20;30.50;;;15.27;;
21183;SDS011;18176;49.502;11.754;2023-01-20T23:37:20;34.50;;;16.67;;
21183;SDS011;18176;49.502;11.754;2023-01-20T23:41:23;36.03;;;17.47;;
21183;SDS011;18176;49.502;11.754;2023-01-20T23:45:23;32.47;;;16.37;;
21183;SDS011;18176;49.502;11.754;2023-01-20T23:49:24;31.30;;;15.20;;
21183;SDS011;18176;49.502;11.754;2023-01-20T23:53:25;31.33;;;15.10;;
21183;SDS011;18176;49.502;11.754;2023-01-20T23:57:30;28.40;;;14.07;;
